Terminal Aerodrome Forecast
Issued by NWS Buffalo, NY

Home | Current Version | Previous Version | Text Only | Print | Product List | Glossary On
Versions: 1 2 3 4 5 6 7 8 9 10 11 12 13 14 15 16 17 18 19 20 21 22 23 24 25
000
FTUS41 KBUF 291700
TAFART
TAF
KART 291739Z 2918/3018 VRB03KT P6SM FEW250
     FM300200 17005KT P6SM SCT150
     FM300700 16006KT P6SM BKN110
     FM301300 18009KT P6SM BKN070
     FM301500 20012KT P6SM SCT045 BKN140=

USA.gov is the U.S. government's official web portal to all federal, state and local government web resources and services.